Time;durP1;ratioP1;P1;durP2;ratioP2;P2;SDS_P1;SDS_P2;PMS_P1;PMS_P2;Temp;Humidity;BMP_temperature;BMP_pressure;BME280_temperature;BME280_humidity;BME280_pressure;Samples;Min_cycle;Max_cycle;Signal;HPM_P1;HPM_P2
2022/08/24 00:00:53;;;;;;;2.40;1.25;;;24.20;42.90;;;;;;2243054;56;21024;-70
2022/08/24 00:03:20;;;;;;;2.33;1.05;;;24.10;42.80;;;;;;2375060;55;21488;-71
2022/08/24 00:05:46;;;;;;;2.15;1.10;;;24.10;43.00;;;;;;2265094;56;20996;-70
2022/08/24 00:08:13;;;;;;;2.20;1.00;;;24.00;42.90;;;;;;2266294;56;20975;-70
2022/08/24 00:10:39;;;;;;;1.98;0.98;;;23.90;42.90;;;;;;2262880;56;20944;-71
2022/08/24 00:13:06;;;;;;;2.37;0.95;;;23.90;42.90;;;;;;2262616;55;21472;-71
2022/08/24 00:15:34;;;;;;;2.05;0.90;;;23.80;42.80;;;;;;2266836;55;20968;-72
2022/08/24 00:18:00;;;;;;;1.95;0.90;;;23.80;42.90;;;;;;2265902;55;21417;-70
2022/08/24 00:20:29;;;;;;;2.40;0.68;;;23.70;42.80;;;;;;2268711;55;21068;-72
2022/08/24 00:22:58;;;;;;;1.60;0.80;;;23.70;42.80;;;;;;2266136;55;20960;-71
2022/08/24 00:25:24;;;;;;;1.98;1.00;;;23.60;42.80;;;;;;2260190;56;21022;-70
2022/08/24 00:27:50;;;;;;;2.67;0.90;;;23.50;42.90;;;;;;2265861;56;21723;-71
2022/08/24 00:30:17;;;;;;;1.75;0.90;;;23.50;43.00;;;;;;2267825;56;20984;-70
2022/08/24 00:32:44;;;;;;;1.30;0.77;;;23.40;43.10;;;;;;2264763;56;21810;-71
2022/08/24 00:35:11;;;;;;;2.67;0.90;;;23.40;43.20;;;;;;2269420;55;20984;-70
2022/08/24 00:37:37;;;;;;;2.50;1.00;;;23.30;43.20;;;;;;2384154;55;21818;-71
2022/08/24 00:40:32;;;;;;;2.35;1.20;;;23.30;43.30;;;;;;2262639;56;20973;-72
2022/08/24 00:43:02;;;;;;;2.00;0.93;;;23.20;43.50;;;;;;2369730;55;22033;-72
2022/08/24 00:45:36;;;;;;;2.00;0.90;;;23.10;43.40;;;;;;2267953;55;20995;-71
2022/08/24 00:48:04;;;;;;;1.77;0.90;;;23.10;43.70;;;;;;2273943;55;20917;-71
2022/08/24 00:51:19;;;;;;;4.10;1.20;;;23.10;43.80;;;;;;2265353;56;21000;-71
2022/08/24 00:53:57;;;;;;;2.62;0.90;;;23.00;44.10;;;;;;2263391;55;20985;-70
2022/08/24 00:56:31;;;;;;;1.70;0.80;;;23.00;44.00;;;;;;2486933;55;20954;-72
2022/08/24 00:59:30;;;;;;;5.60;1.08;;;22.90;43.80;;;;;;2485111;55;20940;-70
2022/08/24 01:01:56;;;;;;;2.58;0.82;;;22.80;44.00;;;;;;2265066;55;20968;-72
2022/08/24 01:04:32;;;;;;;2.22;0.82;;;22.80;43.60;;;;;;2368591;55;21869;-73
2022/08/24 01:06:58;;;;;;;1.60;0.90;;;22.70;43.90;;;;;;2266658;55;22059;-72
2022/08/24 01:09:24;;;;;;;1.37;0.75;;;22.70;43.70;;;;;;2267578;56;20977;-71
2022/08/24 01:11:51;;;;;;;2.45;0.93;;;22.60;43.60;;;;;;2260465;56;21019;-71
2022/08/24 01:14:17;;;;;;;1.73;0.80;;;22.60;43.70;;;;;;2262051;55;21051;-71
2022/08/24 01:19:46;;;;;;;3.17;0.90;;;22.50;43.80;;;;;;2268016;56;20968;-71
2022/08/24 01:24:15;;;;;;;2.20;0.88;;;22.50;44.00;;;;;;2262363;56;20948;-71
2022/08/24 01:26:50;;;;;;;1.48;0.70;;;22.50;44.00;;;;;;2269250;55;20976;-71
2022/08/24 01:29:32;;;;;;;1.80;0.90;;;22.40;43.90;;;;;;2266754;55;20955;-71
2022/08/24 01:31:59;;;;;;;3.40;0.80;;;22.40;44.10;;;;;;2266491;55;20952;-70
2022/08/24 01:34:25;;;;;;;1.70;0.80;;;22.40;43.90;;;;;;2241102;55;20979;-69
2022/08/24 01:36:54;;;;;;;1.90;0.75;;;22.30;43.90;;;;;;2375116;55;21441;-72
2022/08/24 01:39:33;;;;;;;1.60;0.90;;;22.30;44.00;;;;;;2263820;56;21863;-69
2022/08/24 01:42:00;;;;;;;1.52;0.75;;;22.30;44.20;;;;;;2292135;55;21521;-70
2022/08/24 01:44:29;;;;;;;2.03;0.98;;;22.30;44.10;;;;;;2397537;55;20947;-71
2022/08/24 01:46:55;;;;;;;2.15;0.95;;;22.20;44.20;;;;;;2270071;55;21522;-71
2022/08/24 01:49:27;;;;;;;1.42;0.70;;;22.20;44.20;;;;;;2262352;56;20992;-71
2022/08/24 01:51:54;;;;;;;1.98;0.90;;;22.20;44.30;;;;;;2309048;55;20940;-71
2022/08/24 01:54:21;;;;;;;1.62;0.80;;;22.20;44.30;;;;;;2268399;56;21444;-70
2022/08/24 01:56:48;;;;;;;1.65;0.80;;;22.10;44.40;;;;;;2263921;56;21056;-71
2022/08/24 01:59:14;;;;;;;1.70;0.80;;;22.10;44.40;;;;;;2265747;55;20956;-69
2022/08/24 02:01:46;;;;;;;2.28;1.00;;;22.10;44.50;;;;;;2368125;55;20959;-71
2022/08/24 02:04:12;;;;;;;2.50;0.80;;;22.10;44.50;;;;;;2262930;56;20981;-71
2022/08/24 02:06:38;;;;;;;2.45;0.90;;;22.10;44.50;;;;;;2266778;56;20977;-70
2022/08/24 02:09:05;;;;;;;2.28;0.88;;;22.10;44.60;;;;;;2263119;56;20968;-69
2022/08/24 02:11:31;;;;;;;2.30;1.10;;;22.10;44.70;;;;;;2260597;55;21594;-70
2022/08/24 02:13:57;;;;;;;2.00;0.98;;;22.10;44.80;;;;;;2355245;54;21044;-70
2022/08/24 02:16:23;;;;;;;1.80;0.90;;;22.10;44.70;;;;;;2266582;56;20950;-70
2022/08/24 02:18:53;;;;;;;2.47;0.90;;;22.10;44.80;;;;;;2332786;55;20951;-70
2022/08/24 02:21:19;;;;;;;1.80;0.80;;;22.20;44.90;;;;;;2395649;54;20976;-69
2022/08/24 02:23:45;;;;;;;1.55;0.80;;;22.20;44.80;;;;;;2263396;55;21607;-70
2022/08/24 02:26:12;;;;;;;2.22;1.00;;;22.20;44.80;;;;;;2262790;56;20963;-71
2022/08/24 02:28:38;;;;;;;2.00;1.00;;;22.20;44.80;;;;;;2488780;55;21933;-69
2022/08/24 02:31:05;;;;;;;2.97;0.98;;;22.20;44.80;;;;;;2324716;55;21559;-70
2022/08/24 02:33:33;;;;;;;3.00;1.08;;;22.30;44.80;;;;;;2262444;56;21773;-72
2022/08/24 02:35:59;;;;;;;2.00;0.90;;;22.30;44.80;;;;;;2258560;56;20984;-72
2022/08/24 02:38:26;;;;;;;1.73;0.90;;;22.30;44.70;;;;;;2262625;55;21327;-70
2022/08/24 02:40:52;;;;;;;2.78;1.00;;;22.40;44.80;;;;;;2404764;55;21621;-71
2022/08/24 02:43:18;;;;;;;2.28;1.10;;;22.40;44.80;;;;;;2263791;56;21016;-70
2022/08/24 02:45:45;;;;;;;1.90;0.98;;;22.40;44.80;;;;;;2270347;56;21028;-70
2022/08/24 02:48:14;;;;;;;1.92;1.02;;;22.40;44.70;;;;;;2262289;55;20952;-69
2022/08/24 02:50:41;;;;;;;1.80;0.90;;;22.50;44.80;;;;;;2263303;55;20996;-73
2022/08/24 02:53:08;;;;;;;2.05;0.90;;;22.50;44.70;;;;;;2266323;56;21429;-70
2022/08/24 02:55:35;;;;;;;2.08;1.00;;;22.50;44.60;;;;;;2262522;56;21040;-71
2022/08/24 02:58:01;;;;;;;2.65;0.80;;;22.50;44.60;;;;;;2261421;55;20967;-70
2022/08/24 03:00:27;;;;;;;1.80;0.80;;;22.50;44.60;;;;;;2269459;55;20972;-70
2022/08/24 03:02:55;;;;;;;1.92;0.82;;;22.50;44.60;;;;;;2382815;55;21068;-71
2022/08/24 03:05:22;;;;;;;2.95;1.10;;;22.50;44.60;;;;;;2262761;56;21056;-73
2022/08/24 03:07:48;;;;;;;1.37;0.65;;;22.50;44.70;;;;;;2264635;55;21068;-72
2022/08/24 03:10:14;;;;;;;1.83;0.88;;;22.50;44.60;;;;;;2258898;56;21013;-70
2022/08/24 03:12:41;;;;;;;2.67;1.00;;;22.50;45.30;;;;;;2261759;56;20925;-72
2022/08/24 03:15:09;;;;;;;1.98;0.82;;;22.50;44.70;;;;;;2262833;56;21059;-70
2022/08/24 03:17:35;;;;;;;1.90;0.80;;;22.50;44.70;;;;;;2441162;55;20972;-70
2022/08/24 03:20:03;;;;;;;2.42;0.75;;;22.40;44.70;;;;;;2265581;56;21025;-70
2022/08/24 03:22:29;;;;;;;2.30;0.90;;;22.40;44.60;;;;;;2261695;56;21647;-70
2022/08/24 03:24:56;;;;;;;1.65;0.80;;;22.40;44.70;;;;;;2264747;55;20961;-72
2022/08/24 03:27:23;;;;;;;2.10;0.90;;;22.40;44.70;;;;;;2263928;55;20932;-69
2022/08/24 03:29:50;;;;;;;2.40;1.00;;;22.40;44.70;;;;;;2272364;55;20940;-72
2022/08/24 03:32:17;;;;;;;2.20;0.90;;;22.30;44.70;;;;;;2263913;55;21024;-69
2022/08/24 03:34:43;;;;;;;1.90;0.80;;;22.30;44.80;;;;;;2414785;55;21009;-70
2022/08/24 03:37:11;;;;;;;1.73;0.70;;;22.30;44.80;;;;;;2264121;56;21017;-70
2022/08/24 03:39:38;;;;;;;1.80;0.82;;;22.30;44.80;;;;;;2268891;55;20964;-69
2022/08/24 03:42:05;;;;;;;2.72;1.12;;;22.30;44.90;;;;;;2270804;56;20964;-69
2022/08/24 03:44:31;;;;;;;1.40;0.68;;;22.30;44.90;;;;;;2267485;56;21001;-70
2022/08/24 03:46:57;;;;;;;2.78;0.90;;;22.20;44.90;;;;;;2271887;55;21069;-72
2022/08/24 03:49:24;;;;;;;1.35;0.70;;;22.20;44.90;;;;;;2262553;55;20983;-71
2022/08/24 03:51:51;;;;;;;1.95;0.90;;;22.20;44.90;;;;;;2268777;55;20956;-70
2022/08/24 03:54:18;;;;;;;2.03;0.70;;;22.10;44.80;;;;;;2261898;55;20971;-73
2022/08/24 03:56:44;;;;;;;2.37;0.90;;;22.10;44.90;;;;;;2271713;55;21025;-73
2022/08/24 03:59:13;;;;;;;3.00;1.15;;;22.10;45.00;;;;;;2264047;55;21008;-72
2022/08/24 04:01:41;;;;;;;2.60;1.00;;;22.10;45.10;;;;;;2262629;56;21477;-71
2022/08/24 04:04:07;;;;;;;3.00;1.00;;;22.00;45.20;;;;;;2260348;56;21044;-70
2022/08/24 04:06:36;;;;;;;1.80;0.88;;;22.00;45.20;;;;;;2268049;56;21004;-71
2022/08/24 04:09:03;;;;;;;3.12;1.10;;;22.00;45.40;;;;;;2355105;55;20943;-70
2022/08/24 04:11:32;;;;;;;3.03;1.40;;;22.00;45.50;;;;;;2265372;56;20997;-73
2022/08/24 04:14:00;;;;;;;2.97;1.48;;;21.90;45.70;;;;;;2279919;55;21067;-71
2022/08/24 04:16:27;;;;;;;3.45;1.40;;;21.90;45.70;;;;;;2349116;55;20949;-70
2022/08/24 04:18:55;;;;;;;2.80;1.20;;;21.90;45.80;;;;;;2261038;56;20996;-70
2022/08/24 04:21:27;;;;;;;3.25;1.27;;;21.90;45.80;;;;;;2266217;56;21012;-69
2022/08/24 04:23:55;;;;;;;2.78;1.20;;;21.80;45.80;;;;;;2264479;55;20978;-70
2022/08/24 04:26:23;;;;;;;3.33;1.50;;;21.80;45.70;;;;;;2343237;55;20933;-71
2022/08/24 04:28:49;;;;;;;2.53;1.23;;;21.80;45.80;;;;;;2262726;55;21055;-74
2022/08/24 04:31:17;;;;;;;2.40;0.98;;;21.80;45.80;;;;;;2315929;55;21064;-71
2022/08/24 04:33:43;;;;;;;2.60;1.30;;;21.70;45.80;;;;;;2307984;54;21482;-73
2022/08/24 04:36:10;;;;;;;2.87;1.27;;;21.70;46.00;;;;;;2268689;55;21024;-72
2022/08/24 04:38:36;;;;;;;2.60;1.40;;;21.70;46.10;;;;;;2261702;56;21009;-71
2022/08/24 04:41:09;;;;;;;2.67;1.40;;;21.70;46.20;;;;;;2266101;56;20952;-72
2022/08/24 04:43:36;;;;;;;3.58;1.40;;;21.60;46.80;;;;;;2266591;56;21067;-70
2022/08/24 04:46:05;;;;;;;3.20;1.42;;;21.60;46.20;;;;;;2282842;55;21037;-72
2022/08/24 04:48:32;;;;;;;2.67;1.60;;;21.60;46.30;;;;;;2259577;55;21304;-73
2022/08/24 04:51:02;;;;;;;2.42;1.20;;;21.60;46.30;;;;;;2240185;56;20983;-70
2022/08/24 04:53:29;;;;;;;2.85;1.33;;;21.50;46.30;;;;;;2265319;55;21044;-74
2022/08/24 04:55:55;;;;;;;2.80;1.10;;;21.50;46.30;;;;;;2311065;55;20928;-70
2022/08/24 04:58:22;;;;;;;2.72;1.33;;;21.50;46.40;;;;;;2260253;56;21161;-72
2022/08/24 05:00:48;;;;;;;2.35;1.15;;;21.40;46.40;;;;;;2263312;55;21485;-71
2022/08/24 05:03:15;;;;;;;2.22;1.15;;;21.40;46.50;;;;;;2261794;56;20929;-69
2022/08/24 05:05:48;;;;;;;2.20;1.10;;;21.30;46.50;;;;;;2267605;55;21614;-69
2022/08/24 05:08:15;;;;;;;4.03;1.50;;;21.30;46.50;;;;;;2259368;56;20956;-71
2022/08/24 05:10:43;;;;;;;2.70;1.27;;;21.30;46.60;;;;;;2265103;55;21020;-70
2022/08/24 05:13:10;;;;;;;2.25;1.12;;;21.30;46.70;;;;;;2262690;56;21889;-70
2022/08/24 05:15:40;;;;;;;2.72;1.48;;;21.20;46.70;;;;;;2265318;55;21493;-69
2022/08/24 05:18:08;;;;;;;3.50;1.37;;;21.20;47.00;;;;;;2297603;55;20944;-70
2022/08/24 05:20:38;;;;;;;2.75;1.55;;;21.20;47.00;;;;;;2262221;56;21035;-72
2022/08/24 05:23:04;;;;;;;2.53;1.40;;;21.10;46.90;;;;;;2267036;55;21535;-70
2022/08/24 05:25:30;;;;;;;2.60;1.27;;;21.10;47.00;;;;;;2263291;55;20964;-72
2022/08/24 05:27:57;;;;;;;2.62;1.27;;;21.10;47.00;;;;;;2262605;56;21125;-70
2022/08/24 05:30:26;;;;;;;3.10;1.08;;;21.00;47.00;;;;;;2257842;56;21075;-71
2022/08/24 05:32:52;;;;;;;4.87;1.50;;;21.00;47.10;;;;;;2267346;56;20976;-71
2022/08/24 05:35:18;;;;;;;1.98;1.10;;;21.00;47.10;;;;;;2265043;56;21072;-71
2022/08/24 05:37:45;;;;;;;3.22;1.20;;;21.00;47.50;;;;;;2264101;55;21505;-70
2022/08/24 05:40:13;;;;;;;2.25;1.17;;;21.00;47.40;;;;;;2264191;55;20944;-70
2022/08/24 05:42:39;;;;;;;2.58;1.30;;;20.90;47.50;;;;;;2385499;55;20983;-70
2022/08/24 05:45:06;;;;;;;2.62;1.20;;;20.90;47.50;;;;;;2298202;55;21781;-72
2022/08/24 05:47:33;;;;;;;2.17;1.17;;;20.90;47.60;;;;;;2264991;55;20928;-72
2022/08/24 05:50:00;;;;;;;2.05;1.08;;;20.90;47.70;;;;;;2262151;55;21009;-70
2022/08/24 05:52:27;;;;;;;2.92;1.40;;;20.90;47.80;;;;;;2261896;55;21691;-70
2022/08/24 05:54:56;;;;;;;3.05;1.60;;;20.90;47.80;;;;;;2269904;55;20919;-72
2022/08/24 05:57:22;;;;;;;2.75;1.40;;;20.90;48.00;;;;;;2263111;56;20960;-71
2022/08/24 05:59:49;;;;;;;2.70;1.50;;;20.90;48.00;;;;;;2258527;56;20933;-70
2022/08/24 06:02:18;;;;;;;3.10;1.40;;;20.90;48.10;;;;;;2261745;56;20981;-72
2022/08/24 06:04:45;;;;;;;2.80;1.33;;;20.90;48.20;;;;;;2262005;55;21077;-72
2022/08/24 06:07:11;;;;;;;3.00;1.30;;;20.90;48.20;;;;;;2259922;55;21015;-72
2022/08/24 06:09:38;;;;;;;2.58;1.30;;;21.00;48.40;;;;;;2492846;55;20943;-71
2022/08/24 06:12:05;;;;;;;2.72;1.42;;;21.00;48.50;;;;;;2265541;55;20932;-70
2022/08/24 06:14:33;;;;;;;3.85;1.60;;;21.00;48.60;;;;;;2261206;55;21051;-70
2022/08/24 06:17:00;;;;;;;4.00;1.85;;;21.00;48.70;;;;;;2263912;55;21066;-71
2022/08/24 06:19:26;;;;;;;3.92;1.87;;;21.00;48.80;;;;;;2260370;56;20995;-70
2022/08/24 06:21:53;;;;;;;3.00;1.45;;;21.10;49.00;;;;;;2264367;55;21026;-71
2022/08/24 06:27:19;;;;;;;2.58;1.30;;;21.10;49.10;;;;;;2263998;55;20968;-70
2022/08/24 06:29:47;;;;;;;4.10;1.30;;;21.10;49.10;;;;;;2263283;55;20953;-70
2022/08/24 06:32:13;;;;;;;2.67;1.48;;;21.20;48.90;;;;;;2291309;55;21535;-71
2022/08/24 06:34:39;;;;;;;2.70;1.40;;;21.30;49.10;;;;;;2264360;55;21107;-70
2022/08/24 06:37:06;;;;;;;3.70;1.45;;;21.30;49.20;;;;;;2267321;55;20964;-70
2022/08/24 06:39:32;;;;;;;3.33;1.27;;;21.30;49.30;;;;;;2259392;56;21655;-70
2022/08/24 06:41:59;;;;;;;2.97;1.67;;;21.40;49.40;;;;;;2268442;55;21054;-70
2022/08/24 06:44:26;;;;;;;2.55;1.45;;;21.40;49.50;;;;;;2374960;55;21517;-70
2022/08/24 06:46:52;;;;;;;5.72;1.58;;;21.50;49.50;;;;;;2269771;55;21020;-69
2022/08/24 06:49:18;;;;;;;3.20;1.65;;;21.60;49.60;;;;;;2289086;55;21550;-71
2022/08/24 06:51:45;;;;;;;5.57;2.10;;;21.60;49.60;;;;;;2264362;55;20964;-71
2022/08/24 06:54:14;;;;;;;3.42;1.85;;;21.70;49.80;;;;;;2297944;55;21019;-70
2022/08/24 06:56:41;;;;;;;2.85;1.37;;;21.80;49.80;;;;;;2265118;55;20964;-73
2022/08/24 06:59:07;;;;;;;3.12;1.70;;;21.80;49.80;;;;;;2264488;55;21027;-70
2022/08/24 07:01:33;;;;;;;3.55;1.95;;;21.90;49.80;;;;;;2263919;55;21003;-73
2022/08/24 07:04:00;;;;;;;3.35;1.60;;;22.00;49.80;;;;;;2318896;55;21036;-70
2022/08/24 07:06:26;;;;;;;3.25;1.65;;;22.10;49.80;;;;;;2372301;55;21044;-70
2022/08/24 07:08:55;;;;;;;3.22;1.50;;;22.20;49.80;;;;;;2263661;55;20956;-71
2022/08/24 07:11:21;;;;;;;2.42;1.40;;;22.30;49.90;;;;;;2267427;55;20964;-71
2022/08/24 07:13:47;;;;;;;2.83;1.48;;;22.30;49.90;;;;;;2258755;55;20971;-70
2022/08/24 07:16:15;;;;;;;3.17;1.40;;;22.40;50.00;;;;;;2484865;55;21000;-71
2022/08/24 07:18:43;;;;;;;3.12;1.77;;;22.50;50.00;;;;;;2264172;55;20956;-72
2022/08/24 07:21:11;;;;;;;2.72;1.62;;;22.60;50.00;;;;;;2402632;55;21044;-70
2022/08/24 07:23:37;;;;;;;4.18;1.83;;;22.70;49.90;;;;;;2311995;55;20968;-71
2022/08/24 07:26:14;;;;;;;3.53;1.52;;;22.80;49.90;;;;;;2264501;55;21015;-70
2022/08/24 07:28:41;;;;;;;2.65;1.50;;;22.90;49.80;;;;;;2403030;55;21122;-71
2022/08/24 07:31:12;;;;;;;3.35;1.40;;;23.00;49.70;;;;;;2264051;55;20969;-70
2022/08/24 07:33:38;;;;;;;3.12;1.50;;;23.10;49.60;;;;;;2264285;55;21589;-71
2022/08/24 07:36:05;;;;;;;3.85;1.40;;;23.20;49.60;;;;;;2263882;55;20932;-72
2022/08/24 07:38:31;;;;;;;2.60;1.48;;;23.30;49.60;;;;;;2264118;55;21074;-70
2022/08/24 07:41:00;;;;;;;3.60;1.67;;;23.40;49.60;;;;;;2264597;55;20972;-73
2022/08/24 07:43:40;;;;;;;4.03;1.15;;;23.50;49.60;;;;;;2242545;56;21055;-70
2022/08/24 07:46:06;;;;;;;2.47;1.40;;;23.60;49.50;;;;;;2264353;55;21011;-71
2022/08/24 07:48:34;;;;;;;4.03;1.70;;;23.70;49.50;;;;;;2291529;55;22316;-70
2022/08/24 07:51:10;;;;;;;3.83;1.73;;;23.80;49.50;;;;;;2265723;55;20949;-71
2022/08/24 07:53:36;;;;;;;3.05;1.60;;;23.90;49.80;;;;;;2263250;55;21015;-73
2022/08/24 07:56:16;;;;;;;3.15;1.50;;;24.00;49.60;;;;;;2263934;56;21044;-71
2022/08/24 07:58:43;;;;;;;2.62;1.45;;;24.10;49.60;;;;;;2265781;55;21018;-71
2022/08/24 08:01:09;;;;;;;4.90;1.58;;;24.20;49.60;;;;;;2265240;55;20958;-71
2022/08/24 08:03:36;;;;;;;3.00;1.52;;;24.30;49.60;;;;;;2269203;56;20992;-71
2022/08/24 08:06:04;;;;;;;3.50;1.62;;;24.40;49.60;;;;;;2261321;56;21035;-72
2022/08/24 08:08:35;;;;;;;2.58;1.40;;;24.60;49.60;;;;;;2264945;55;20971;-71
2022/08/24 08:11:02;;;;;;;2.83;1.30;;;24.70;49.60;;;;;;2469424;55;20945;-70
2022/08/24 08:13:29;;;;;;;5.35;1.37;;;24.80;49.40;;;;;;2260431;55;20987;-70
2022/08/24 08:15:58;;;;;;;2.85;1.40;;;24.90;49.30;;;;;;2290641;55;20952;-70
2022/08/24 08:18:25;;;;;;;2.78;1.30;;;25.00;49.30;;;;;;2262995;55;21785;-71
2022/08/24 08:20:52;;;;;;;3.12;1.50;;;25.10;49.20;;;;;;2264402;55;21031;-73
2022/08/24 08:26:03;;;;;;;2.50;1.30;;;25.30;49.10;;;;;;2264436;55;20967;-71
2022/08/24 08:28:32;;;;;;;2.95;1.42;;;25.40;49.10;;;;;;2287694;55;21625;-70
2022/08/24 08:31:00;;;;;;;2.78;1.23;;;25.60;49.00;;;;;;2262415;56;20944;-71
2022/08/24 08:33:26;;;;;;;3.33;1.42;;;25.70;49.00;;;;;;2271325;55;20968;-70
2022/08/24 08:36:00;;;;;;;3.03;1.40;;;25.80;49.00;;;;;;2343918;55;20981;-71
2022/08/24 08:38:27;;;;;;;3.05;1.45;;;25.90;49.00;;;;;;2291150;55;21760;-70
2022/08/24 08:42:14;;;;;;;2.62;1.40;;;26.00;48.90;;;;;;2395537;55;20956;-71
2022/08/24 08:50:07;;;;;;;2.75;1.35;;;26.20;48.70;;;;;;2267384;55;20980;-71
2022/08/24 08:55:51;;;;;;;2.67;1.20;;;26.60;48.10;;;;;;2266329;55;21035;-70
2022/08/24 09:01:43;;;;;;;3.03;1.40;;;26.70;47.30;;;;;;2267501;55;20963;-71
2022/08/24 09:07:12;;;;;;;2.75;1.20;;;26.90;46.90;;;;;;2278432;55;21828;-70
2022/08/24 09:15:02;;;;;;;2.00;0.80;;;27.10;47.00;;;;;;2424642;55;20939;-73
2022/08/24 09:23:37;;;;;;;2.28;1.08;;;27.50;46.80;;;;;;2266064;55;21035;-70
2022/08/24 09:26:08;;;;;;;3.15;0.82;;;27.60;46.60;;;;;;2267157;55;21766;-69
2022/08/24 09:28:43;;;;;;;;;;;27.80;46.30;;;;;;2267580;56;21055;-72
2022/08/24 09:31:56;;;;;;;1.95;0.90;;;27.90;46.30;;;;;;2265835;55;20066;-70
2022/08/24 09:38:03;;;;;;;2.00;1.10;;;28.00;46.20;;;;;;2264724;56;20951;-72
2022/08/24 09:41:38;;;;;;;2.55;1.00;;;28.10;46.20;;;;;;2297606;55;21468;-70
2022/08/24 09:46:00;;;;;;;2.37;1.17;;;28.30;45.80;;;;;;2268238;55;20981;-70
2022/08/24 09:48:38;;;;;;;2.95;1.20;;;28.50;45.70;;;;;;2264245;56;20968;-72
2022/08/24 09:54:23;;;;;;;3.28;1.52;;;28.60;45.40;;;;;;2350326;54;21753;-72
2022/08/24 09:57:29;;;;;;;2.80;1.33;;;28.80;45.20;;;;;;2329083;55;21716;-70
2022/08/24 10:02:10;;;;;;;2.83;1.10;;;28.90;44.70;;;;;;2362778;55;20954;-70
2022/08/24 10:08:16;;;;;;;3.65;1.17;;;29.00;45.10;;;;;;2306211;55;21726;-70
2022/08/24 10:14:30;;;;;;;3.42;1.33;;;29.10;44.50;;;;;;2265671;55;20983;-71
2022/08/24 10:17:12;;;;;;;2.25;1.10;;;29.40;44.60;;;;;;2330109;55;21007;-70
2022/08/24 10:21:30;;;;;;;2.35;0.98;;;29.50;44.00;;;;;;2266264;55;21067;-70
2022/08/24 10:27:13;;;;;;;2.37;1.17;;;29.50;43.70;;;;;;2265629;55;21002;-71
2022/08/24 10:31:25;;;;;;;2.30;1.00;;;29.70;44.00;;;;;;2268740;55;21055;-70
2022/08/24 10:47:22;;;;;;;2.25;0.95;;;30.10;43.70;;;;;;2491036;54;20949;-71
2022/08/24 10:53:57;;;;;;;1.98;0.90;;;30.30;43.10;;;;;;2265060;55;21033;-71
2022/08/24 10:56:58;;;;;;;2.62;1.23;;;30.40;43.00;;;;;;2263961;56;20955;-72
2022/08/24 10:59:35;;;;;;;2.08;1.10;;;30.60;42.00;;;;;;2264708;55;21110;-70
2022/08/24 11:02:34;;;;;;;3.33;1.17;;;30.60;42.10;;;;;;2267129;56;21050;-70
2022/08/24 11:05:11;;;;;;;2.62;1.25;;;30.70;41.50;;;;;;2262587;56;21067;-71
2022/08/24 11:07:59;;;;;;;4.45;1.33;;;30.80;41.50;;;;;;2265980;55;21004;-71
2022/08/24 11:10:32;;;;;;;2.85;1.35;;;30.90;41.00;;;;;;2267549;55;21017;-71
2022/08/24 11:13:22;;;;;;;2.28;1.15;;;30.90;41.50;;;;;;2267057;55;20976;-72
2022/08/24 11:15:54;;;;;;;2.40;1.10;;;31.00;40.70;;;;;;2265467;55;21039;-71
2022/08/24 11:18:21;;;;;;;2.58;1.15;;;31.10;41.00;;;;;;2271105;55;20948;-71
2022/08/24 11:20:48;;;;;;;2.40;1.20;;;31.20;41.10;;;;;;2266801;56;20933;-72
2022/08/24 11:23:27;;;;;;;3.45;1.40;;;31.30;40.80;;;;;;2343761;55;21769;-70
2022/08/24 11:26:11;;;;;;;2.78;1.40;;;31.30;40.70;;;;;;2265805;55;20948;-70
2022/08/24 11:28:44;;;;;;;2.90;1.30;;;31.40;39.90;;;;;;2265727;55;21071;-73
2022/08/24 11:34:42;;;;;;;2.03;1.10;;;31.50;39.80;;;;;;2266322;55;21914;-69
2022/08/24 11:37:15;;;;;;;3.80;1.08;;;31.60;39.80;;;;;;2268496;55;21536;-70
2022/08/24 11:39:41;;;;;;;3.87;1.25;;;31.70;39.50;;;;;;2262045;56;21008;-72
2022/08/24 11:42:40;;;;;;;1.65;0.85;;;31.80;39.20;;;;;;2266196;55;21073;-70
2022/08/24 11:45:18;;;;;;;2.95;1.20;;;31.90;38.60;;;;;;2263020;55;21003;-70
2022/08/24 11:47:51;;;;;;;2.28;1.05;;;31.90;38.40;;;;;;2357836;55;20967;-69
2022/08/24 11:50:28;;;;;;;2.40;1.10;;;32.00;38.30;;;;;;2304784;55;20995;-71
2022/08/24 11:54:50;;;;;;;1.95;1.02;;;32.10;38.00;;;;;;2340961;55;20971;-70
2022/08/24 12:01:38;;;;;;;2.22;0.90;;;32.30;37.40;;;;;;2295390;55;21008;-70
2022/08/24 12:05:26;;;;;;;2.37;1.00;;;32.40;37.40;;;;;;2265879;55;21432;-70
2022/08/24 12:11:11;;;;;;;2.08;1.00;;;32.50;37.60;;;;;;2266278;55;21245;-71
2022/08/24 12:14:07;;;;;;;2.17;0.90;;;32.50;36.70;;;;;;2266300;55;21012;-72
2022/08/24 12:20:48;;;;;;;2.37;0.82;;;32.80;36.50;;;;;;2265848;55;20975;-70
2022/08/24 12:24:16;;;;;;;1.98;0.77;;;32.90;37.10;;;;;;2264398;55;21790;-71
2022/08/24 12:28:52;;;;;;;1.73;0.90;;;32.90;36.60;;;;;;2265838;55;21888;-70
2022/08/24 12:31:33;;;;;;;1.90;0.80;;;33.00;35.40;;;;;;2417512;55;21031;-71
2022/08/24 12:34:07;;;;;;;1.70;0.90;;;33.10;35.70;;;;;;2272591;55;21453;-71
2022/08/24 12:36:50;;;;;;;1.92;0.82;;;33.10;35.60;;;;;;2265967;55;20980;-70
2022/08/24 12:39:23;;;;;;;2.20;0.90;;;33.20;35.10;;;;;;2265443;55;21042;-69
2022/08/24 12:42:16;;;;;;;1.75;0.80;;;33.30;34.80;;;;;;2264622;55;20998;-70
2022/08/24 12:44:52;;;;;;;2.33;0.98;;;33.30;34.60;;;;;;2329860;55;20987;-68
2022/08/24 12:47:53;;;;;;;1.65;0.80;;;33.40;34.60;;;;;;2265719;55;21043;-69
2022/08/24 12:51:59;;;;;;;2.03;0.90;;;33.50;34.70;;;;;;2266370;55;20984;-70
2022/08/24 12:54:53;;;;;;;2.00;0.70;;;33.60;33.80;;;;;;2282720;55;21004;-71
2022/08/24 12:57:43;;;;;;;1.75;0.93;;;33.70;33.50;;;;;;2268391;55;21016;-69
2022/08/24 13:00:33;;;;;;;1.75;0.70;;;33.80;32.80;;;;;;2263744;55;20988;-68
2022/08/24 13:03:02;;;;;;;1.70;0.80;;;33.80;33.10;;;;;;2266022;55;20983;-70
2022/08/24 13:08:10;;;;;;;1.50;0.62;;;34.00;33.20;;;;;;2264793;55;20945;-69
2022/08/24 13:10:42;;;;;;;1.02;0.40;;;34.10;33.00;;;;;;2266027;55;20935;-70
2022/08/24 13:13:12;;;;;;;4.35;0.73;;;34.20;33.00;;;;;;2351705;55;20976;-69
2022/08/24 13:15:51;;;;;;;1.95;0.70;;;34.20;32.90;;;;;;2266567;55;20956;-71
2022/08/24 13:18:44;;;;;;;2.30;0.70;;;34.30;32.00;;;;;;2266321;55;21020;-72
2022/08/24 13:21:33;;;;;;;1.85;0.70;;;34.30;31.30;;;;;;2269530;55;20971;-71
2022/08/24 13:31:47;;;;;;;2.10;0.80;;;34.60;31.00;;;;;;2428502;55;21036;-69
2022/08/24 13:34:43;;;;;;;2.12;0.75;;;34.60;30.80;;;;;;2267914;55;20975;-70
2022/08/24 13:37:15;;;;;;;1.58;0.70;;;34.70;30.00;;;;;;2265783;55;21944;-70
2022/08/24 13:40:44;;;;;;;1.75;0.60;;;34.70;30.20;;;;;;2244448;56;20948;-71
2022/08/24 13:43:18;;;;;;;2.65;0.80;;;34.80;30.50;;;;;;2318370;55;20936;-70
2022/08/24 13:49:19;;;;;;;1.80;0.70;;;34.80;31.20;;;;;;2496070;55;21032;-70
2022/08/24 13:54:25;;;;;;;1.05;0.55;;;34.90;30.90;;;;;;2300023;55;21037;-70
2022/08/24 13:57:24;;;;;;;1.23;0.50;;;34.90;30.10;;;;;;2265489;55;21035;-69
2022/08/24 14:00:13;;;;;;;1.33;0.70;;;35.00;29.70;;;;;;2266424;55;20987;-69
2022/08/24 14:03:30;;;;;;;1.48;0.70;;;35.00;29.20;;;;;;2267167;55;20964;-69
2022/08/24 14:06:39;;;;;;;1.20;0.55;;;35.00;29.20;;;;;;2265534;55;21035;-71
2022/08/24 14:21:47;;;;;;;0.50;0.30;;;35.20;29.80;;;;;;2266088;55;20994;-71
2022/08/24 14:24:39;;;;;;;1.10;0.50;;;35.30;29.50;;;;;;2265622;55;20928;-70
2022/08/24 14:28:44;;;;;;;1.80;0.73;;;35.30;28.40;;;;;;2423935;55;21088;-70
2022/08/24 14:31:28;;;;;;;1.62;0.60;;;35.30;28.40;;;;;;2266033;55;20952;-72
2022/08/24 14:34:58;;;;;;;1.10;0.57;;;35.40;28.20;;;;;;2266061;55;21032;-69
2022/08/24 14:41:20;;;;;;;2.25;0.55;;;35.40;28.00;;;;;;2266114;55;20970;-70
2022/08/24 14:44:12;;;;;;;1.23;0.52;;;35.40;27.80;;;;;;2244218;56;21266;-69
2022/08/24 14:46:57;;;;;;;2.00;0.70;;;35.50;27.40;;;;;;2486461;55;20972;-70
2022/08/24 14:50:57;;;;;;;1.75;0.60;;;35.50;27.40;;;;;;2269572;55;20967;-71
2022/08/24 14:56:08;;;;;;;1.48;0.50;;;35.50;27.70;;;;;;2266146;55;20943;-71
2022/08/24 14:58:48;;;;;;;1.48;0.47;;;35.60;27.90;;;;;;2266218;55;20952;-69
2022/08/24 15:01:44;;;;;;;4.03;0.60;;;35.70;27.90;;;;;;2267116;55;20976;-70
2022/08/24 15:07:50;;;;;;;1.98;0.65;;;35.70;27.80;;;;;;2264350;55;21023;-69
2022/08/24 15:10:23;;;;;;;1.30;0.40;;;35.80;28.10;;;;;;2266533;55;20932;-70
2022/08/24 15:13:01;;;;;;;1.48;0.50;;;35.80;28.00;;;;;;2243996;56;20971;-70
2022/08/24 15:17:07;;;;;;;0.98;0.32;;;35.80;27.40;;;;;;2265240;55;20999;-69
2022/08/24 15:24:54;;;;;;;1.00;0.40;;;35.80;27.70;;;;;;2266278;55;20960;-71
2022/08/24 15:27:29;;;;;;;;;;;35.80;27.60;;;;;;2364187;55;21867;-70
2022/08/24 15:29:58;;;;;;;0.88;0.30;;;35.80;27.70;;;;;;2266022;55;20773;-71
2022/08/24 15:32:50;;;;;;;0.93;0.40;;;35.80;27.60;;;;;;2263493;56;21010;-71
2022/08/24 15:35:35;;;;;;;1.23;0.50;;;35.80;27.40;;;;;;2345203;55;21011;-69
2022/08/24 15:38:24;;;;;;;0.75;0.40;;;35.70;27.00;;;;;;2265662;55;21484;-70
2022/08/24 15:42:42;;;;;;;0.75;0.37;;;35.60;26.80;;;;;;2265271;55;21487;-69
2022/08/24 15:45:09;;;;;;;1.35;0.50;;;35.60;27.90;;;;;;2378102;55;20985;-71
2022/08/24 15:47:37;;;;;;;2.40;0.73;;;35.50;27.40;;;;;;2264254;55;20945;-70